Aviation Digital Data Service (ADDS)

Output produced by METARs form (2111 UTC 01 December 2021)
found at http://aviationweather.gov/metar/data/
 
KTYR 012053Z 22008KT 10SM CLR 24/13 A3005 RMK AO2 SLP172 T02390128 56015
KTYR 011720Z 0118/0218 23013G20KT P6SM SKC 
     FM020000 22004KT P6SM SKC